Time;durP1;ratioP1;P1;durP2;ratioP2;P2;SDS_P1;SDS_P2;PMS_P1;PMS_P2;Temp;Humidity;BMP_temperature;BMP_pressure;BME280_temperature;BME280_humidity;BME280_pressure;Samples;Min_cycle;Max_cycle;Signal;HPM_P1;HPM_P2
2021/03/23 00:01:40;;;;;;;14.23;6.93;;;4.40;99.90;;;;;;4960935;28;20037;-86
2021/03/23 00:04:06;;;;;;;14.85;6.63;;;4.30;99.90;;;;;;4960775;28;20034;-86
2021/03/23 00:06:32;;;;;;;13.82;7.10;;;4.20;99.90;;;;;;4960868;28;20073;-85
2021/03/23 00:09:04;;;;;;;14.43;7.22;;;4.20;99.90;;;;;;4960867;28;20062;-85
2021/03/23 00:11:31;;;;;;;14.93;6.85;;;4.20;99.90;;;;;;4960696;28;20022;-86
2021/03/23 00:13:58;;;;;;;12.40;7.43;;;4.10;99.90;;;;;;4960627;28;20027;-86
2021/03/23 00:16:29;;;;;;;15.88;7.25;;;4.00;99.90;;;;;;4977718;28;20023;-85
2021/03/23 00:18:55;;;;;;;14.75;7.40;;;4.00;99.90;;;;;;4977850;28;20019;-86
2021/03/23 00:21:23;;;;;;;17.25;7.28;;;3.90;99.90;;;;;;4960531;28;20027;-86
2021/03/23 00:23:49;;;;;;;13.60;6.75;;;3.90;99.90;;;;;;4960430;28;20433;-86
2021/03/23 00:26:16;;;;;;;17.42;7.28;;;4.10;99.90;;;;;;4960352;28;20113;-86
2021/03/23 00:28:49;;;;;;;14.68;7.95;;;4.30;99.90;;;;;;4960344;28;20019;-85
2021/03/23 00:31:20;;;;;;;15.65;7.03;;;4.20;99.90;;;;;;4960394;28;20023;-86
2021/03/23 00:33:46;;;;;;;12.73;7.47;;;4.10;99.90;;;;;;4960480;28;20054;-86
2021/03/23 00:36:15;;;;;;;14.63;7.70;;;4.10;99.90;;;;;;4960264;28;20033;-85
2021/03/23 00:38:41;;;;;;;13.00;6.32;;;4.10;99.90;;;;;;4960277;28;20481;-86
2021/03/23 00:41:08;;;;;;;14.13;8.80;;;4.00;99.90;;;;;;4960242;28;20061;-85
2021/03/23 00:43:38;;;;;;;14.07;6.47;;;4.20;99.90;;;;;;4959962;28;20029;-85
2021/03/23 00:46:04;;;;;;;12.18;6.47;;;4.30;99.90;;;;;;4977535;28;20019;-85
2021/03/23 00:48:30;;;;;;;10.45;6.15;;;4.30;99.90;;;;;;4960179;28;20492;-85
2021/03/23 00:50:55;;;;;;;17.10;6.47;;;4.40;99.90;;;;;;4977449;28;20027;-85
2021/03/23 00:53:21;;;;;;;11.55;6.35;;;4.50;99.90;;;;;;4960110;28;20034;-85
2021/03/23 00:55:47;;;;;;;10.30;5.75;;;4.50;99.90;;;;;;4959958;28;20031;-86
2021/03/23 00:58:12;;;;;;;11.30;6.63;;;4.50;99.90;;;;;;4959928;28;20030;-85
2021/03/23 01:00:38;;;;;;;10.35;6.22;;;4.50;99.90;;;;;;4959744;28;20501;-85
2021/03/23 01:03:04;;;;;;;11.07;6.10;;;4.50;99.90;;;;;;4959279;28;20038;-85
2021/03/23 01:05:32;;;;;;;14.77;6.30;;;4.50;99.90;;;;;;4959681;28;20031;-85
2021/03/23 01:07:59;;;;;;;14.18;6.97;;;4.50;99.90;;;;;;4959753;28;20069;-85
2021/03/23 01:10:27;;;;;;;9.77;5.68;;;4.50;99.90;;;;;;4959706;28;20023;-86
2021/03/23 01:12:53;;;;;;;12.88;5.97;;;4.50;99.90;;;;;;4959534;28;20027;-86
2021/03/23 01:15:23;;;;;;;10.27;5.80;;;4.50;99.90;;;;;;4959538;28;20038;-85
2021/03/23 01:17:49;;;;;;;16.00;7.00;;;4.50;99.90;;;;;;4959669;28;20101;-86
2021/03/23 01:20:18;;;;;;;12.45;5.88;;;4.40;99.90;;;;;;4959496;28;20398;-86
2021/03/23 01:22:43;;;;;;;16.70;7.25;;;4.40;99.90;;;;;;4960307;28;20492;-86
2021/03/23 01:25:10;;;;;;;11.80;6.95;;;4.40;99.90;;;;;;4959290;28;20023;-86
2021/03/23 01:27:36;;;;;;;15.77;7.75;;;4.40;99.90;;;;;;4959633;28;20136;-86
2021/03/23 01:30:03;;;;;;;15.35;7.57;;;4.30;99.90;;;;;;4959357;28;20031;-85
2021/03/23 01:32:29;;;;;;;12.27;7.53;;;4.20;99.90;;;;;;4959263;28;20023;-86
2021/03/23 01:34:55;;;;;;;15.02;7.05;;;4.20;99.90;;;;;;4959538;28;20034;-85
2021/03/23 01:37:20;;;;;;;10.45;6.82;;;4.20;99.90;;;;;;4976517;28;20101;-86
2021/03/23 01:39:46;;;;;;;11.05;6.80;;;4.20;99.90;;;;;;4959034;28;20426;-85
2021/03/23 01:42:14;;;;;;;13.52;6.70;;;4.20;99.90;;;;;;4959091;28;20101;-85
2021/03/23 01:44:42;;;;;;;11.75;6.47;;;4.30;99.90;;;;;;4959023;28;20062;-85
2021/03/23 01:47:09;;;;;;;16.30;7.80;;;4.20;99.90;;;;;;4959026;28;20018;-86
2021/03/23 01:49:46;;;;;;;11.18;6.50;;;4.20;99.90;;;;;;4958993;28;20027;-85
2021/03/23 01:52:18;;;;;;;13.55;7.50;;;4.20;99.90;;;;;;4958931;28;20033;-85
2021/03/23 01:54:59;;;;;;;11.77;6.55;;;4.30;99.90;;;;;;4958890;28;20034;-85
2021/03/23 01:57:24;;;;;;;11.05;6.57;;;4.40;99.90;;;;;;4958846;28;20031;-86
2021/03/23 01:59:54;;;;;;;16.60;7.43;;;4.40;99.90;;;;;;4976049;28;20049;-86
2021/03/23 02:02:26;;;;;;;12.68;7.32;;;4.30;99.90;;;;;;4958726;28;20030;-85
2021/03/23 02:04:52;;;;;;;12.80;6.55;;;4.20;99.90;;;;;;4958653;28;20034;-85
2021/03/23 02:07:18;;;;;;;12.57;7.18;;;4.30;99.90;;;;;;4958544;28;20030;-86
2021/03/23 02:09:43;;;;;;;14.75;6.40;;;4.20;99.90;;;;;;4958539;28;20038;-85
2021/03/23 02:12:16;;;;;;;14.23;7.35;;;4.10;99.90;;;;;;4958526;28;20027;-85
2021/03/23 02:14:45;;;;;;;11.32;6.47;;;4.20;99.90;;;;;;4957721;28;20542;-85
2021/03/23 02:17:15;;;;;;;12.32;6.55;;;4.20;99.90;;;;;;4958181;28;20050;-85
2021/03/23 02:19:41;;;;;;;14.98;8.10;;;4.20;99.90;;;;;;4958402;28;20107;-85
2021/03/23 02:22:26;;;;;;;16.92;7.70;;;4.20;99.90;;;;;;4975678;28;20042;-85
2021/03/23 02:24:53;;;;;;;10.82;6.88;;;4.10;99.90;;;;;;4958258;28;20037;-85
2021/03/23 02:27:20;;;;;;;13.13;6.75;;;4.10;99.90;;;;;;4958219;28;20038;-85
2021/03/23 02:29:48;;;;;;;12.07;6.40;;;4.30;99.90;;;;;;4958811;28;20474;-85
2021/03/23 02:32:14;;;;;;;13.68;6.82;;;4.30;99.90;;;;;;4958169;28;20019;-85
2021/03/23 02:34:39;;;;;;;14.80;7.68;;;4.30;99.90;;;;;;4958182;28;20031;-85
2021/03/23 02:37:06;;;;;;;10.68;6.45;;;4.40;99.90;;;;;;4958370;28;20031;-85
2021/03/23 02:39:33;;;;;;;18.63;7.35;;;4.40;99.90;;;;;;4958007;28;20546;-85
2021/03/23 02:42:00;;;;;;;12.80;6.95;;;4.50;99.90;;;;;;4975340;28;20026;-85
2021/03/23 02:44:27;;;;;;;13.27;7.50;;;4.50;99.90;;;;;;4957860;28;20034;-85
2021/03/23 02:46:53;;;;;;;16.05;7.30;;;4.50;99.90;;;;;;4957950;28;20058;-85
2021/03/23 02:49:18;;;;;;;12.02;6.80;;;4.50;99.90;;;;;;4957914;28;20129;-85
2021/03/23 02:51:49;;;;;;;10.80;6.20;;;4.50;99.90;;;;;;4975067;28;20029;-85
2021/03/23 02:54:14;;;;;;;14.23;7.57;;;4.50;99.90;;;;;;4957823;28;20417;-85
2021/03/23 02:56:40;;;;;;;11.32;6.25;;;4.50;99.90;;;;;;4957791;28;20038;-85
2021/03/23 02:59:06;;;;;;;19.58;9.35;;;4.50;99.90;;;;;;4957805;28;20027;-85
2021/03/23 03:01:32;;;;;;;17.50;9.00;;;4.40;99.90;;;;;;4975100;28;20113;-85
2021/03/23 03:03:57;;;;;;;18.10;9.35;;;4.40;99.90;;;;;;4957504;28;20388;-85
2021/03/23 03:06:23;;;;;;;15.07;8.52;;;4.40;99.90;;;;;;4957750;28;20062;-85
2021/03/23 03:08:49;;;;;;;15.90;8.23;;;4.40;99.90;;;;;;4957723;28;20023;-85
2021/03/23 03:11:14;;;;;;;19.67;10.75;;;4.40;99.90;;;;;;4957723;28;20061;-85
2021/03/23 03:13:42;;;;;;;14.75;8.75;;;4.30;99.90;;;;;;4975205;28;20374;-85
2021/03/23 03:16:08;;;;;;;16.05;9.52;;;4.30;99.90;;;;;;4957450;28;20081;-85
2021/03/23 03:18:33;;;;;;;16.25;8.93;;;4.20;99.90;;;;;;4957368;28;20383;-85
2021/03/23 03:21:00;;;;;;;15.15;8.68;;;4.30;99.90;;;;;;4957544;28;20034;-85
2021/03/23 03:23:26;;;;;;;18.80;10.90;;;4.30;99.90;;;;;;4957467;28;20104;-86
2021/03/23 03:25:52;;;;;;;14.20;8.32;;;4.40;99.90;;;;;;4957155;28;20208;-85
2021/03/23 03:28:19;;;;;;;18.65;11.35;;;4.30;99.90;;;;;;4957425;28;20548;-85
2021/03/23 03:30:45;;;;;;;27.00;14.55;;;4.40;99.90;;;;;;4957330;28;20077;-85
2021/03/23 03:33:15;;;;;;;18.10;10.02;;;4.30;99.90;;;;;;4957395;28;20501;-85
2021/03/23 03:35:43;;;;;;;26.40;15.15;;;4.20;99.90;;;;;;4974798;28;20114;-85
2021/03/23 03:38:09;;;;;;;18.52;11.07;;;4.20;99.90;;;;;;4974665;28;20031;-85
2021/03/23 03:40:38;;;;;;;24.40;13.50;;;4.10;99.90;;;;;;4957303;28;20390;-85
2021/03/23 03:43:05;;;;;;;24.60;14.40;;;4.20;99.90;;;;;;4957245;28;20386;-85
2021/03/23 03:45:31;;;;;;;15.40;9.80;;;4.20;99.90;;;;;;4974758;28;20026;-86
2021/03/23 03:47:57;;;;;;;20.30;11.07;;;4.20;99.90;;;;;;4957249;28;20425;-85
2021/03/23 03:50:25;;;;;;;23.83;12.77;;;4.30;99.90;;;;;;4974526;28;20022;-86
2021/03/23 03:52:51;;;;;;;27.88;15.90;;;4.30;99.90;;;;;;4974786;28;20394;-85
2021/03/23 03:55:19;;;;;;;17.08;11.43;;;4.30;99.90;;;;;;4957156;28;20030;-85
2021/03/23 03:57:45;;;;;;;24.25;14.77;;;4.20;99.90;;;;;;4957136;28;20029;-85
2021/03/23 04:00:12;;;;;;;25.00;14.13;;;4.20;99.90;;;;;;4974488;28;20390;-85
2021/03/23 04:02:37;;;;;;;23.70;14.18;;;3.90;99.90;;;;;;4957619;28;20490;-85
2021/03/23 04:05:07;;;;;;;24.58;14.98;;;3.80;99.90;;;;;;4957000;28;20031;-85
2021/03/23 04:07:33;;;;;;;27.38;15.75;;;3.90;99.90;;;;;;4957260;28;20393;-85
2021/03/23 04:09:59;;;;;;;28.10;15.88;;;3.80;99.90;;;;;;4957071;28;20022;-85
2021/03/23 04:12:24;;;;;;;22.42;13.32;;;3.70;99.90;;;;;;4974361;28;20360;-86
2021/03/23 04:14:50;;;;;;;30.20;16.08;;;3.70;99.90;;;;;;4957271;28;20029;-85
2021/03/23 04:17:16;;;;;;;31.38;18.02;;;3.90;99.90;;;;;;4956815;28;20049;-86
2021/03/23 04:19:42;;;;;;;30.77;17.45;;;3.80;99.90;;;;;;4957016;28;20034;-85
2021/03/23 04:22:08;;;;;;;26.77;15.38;;;3.70;99.90;;;;;;4957005;28;20497;-85
2021/03/23 04:24:33;;;;;;;29.88;17.42;;;3.60;99.90;;;;;;4974259;28;20034;-86
2021/03/23 04:26:59;;;;;;;35.00;18.10;;;3.60;99.90;;;;;;4957096;28;20034;-85
2021/03/23 04:29:25;;;;;;;19.48;13.57;;;3.60;99.90;;;;;;4956916;28;20374;-85
2021/03/23 04:31:51;;;;;;;25.58;15.38;;;3.70;99.90;;;;;;4956900;28;20077;-85
2021/03/23 04:34:17;;;;;;;27.58;16.38;;;3.90;99.90;;;;;;4956836;28;20058;-86
2021/03/23 04:36:43;;;;;;;30.23;16.25;;;4.00;99.90;;;;;;4975018;28;20035;-85
2021/03/23 04:39:11;;;;;;;26.55;14.95;;;4.00;99.90;;;;;;4960277;28;20114;-85
2021/03/23 04:41:38;;;;;;;22.58;13.27;;;4.00;99.90;;;;;;4977552;28;20050;-85
2021/03/23 04:44:05;;;;;;;28.85;16.92;;;4.00;99.90;;;;;;4960138;28;20023;-86
2021/03/23 04:46:31;;;;;;;23.35;13.88;;;4.00;99.90;;;;;;4960154;28;20059;-85
2021/03/23 04:48:57;;;;;;;26.70;15.18;;;4.10;99.90;;;;;;4960050;28;20059;-85
2021/03/23 04:51:26;;;;;;;24.33;15.13;;;4.10;99.90;;;;;;4960028;28;20206;-86
2021/03/23 04:54:02;;;;;;;25.80;14.45;;;4.00;99.90;;;;;;4977537;28;20030;-86
2021/03/23 04:56:30;;;;;;;23.60;14.35;;;3.90;99.90;;;;;;4959991;28;20113;-85
2021/03/23 04:58:57;;;;;;;23.48;14.77;;;4.00;99.90;;;;;;4977311;28;20023;-86
2021/03/23 05:01:23;;;;;;;28.42;16.88;;;4.00;99.90;;;;;;4959812;28;20030;-85
2021/03/23 05:03:55;;;;;;;25.88;14.82;;;4.00;99.90;;;;;;4959794;28;20050;-86
2021/03/23 05:06:22;;;;;;;26.77;14.95;;;4.00;99.90;;;;;;4959852;28;20022;-86
2021/03/23 05:08:47;;;;;;;21.17;13.93;;;4.10;99.90;;;;;;4959749;28;20027;-85
2021/03/23 05:11:15;;;;;;;33.00;17.23;;;4.10;99.90;;;;;;4977035;28;20110;-86
2021/03/23 05:13:41;;;;;;;26.33;14.50;;;4.00;99.90;;;;;;4959777;28;20027;-86
2021/03/23 05:16:07;;;;;;;21.42;13.32;;;3.90;99.90;;;;;;4959596;28;20019;-86
2021/03/23 05:18:32;;;;;;;30.20;16.08;;;4.00;99.90;;;;;;4959330;28;20050;-86
2021/03/23 05:20:58;;;;;;;26.60;14.32;;;4.10;99.90;;;;;;4959698;28;20118;-86
2021/03/23 05:23:24;;;;;;;20.13;12.13;;;4.10;99.90;;;;;;4959499;28;20026;-86
2021/03/23 05:25:51;;;;;;;21.40;13.60;;;4.20;99.90;;;;;;4976630;28;20023;-86
2021/03/23 05:28:17;;;;;;;27.23;15.75;;;4.20;99.90;;;;;;4959450;28;20158;-86
2021/03/23 05:30:43;;;;;;;27.88;15.68;;;4.10;99.90;;;;;;4976791;28;20031;-85
2021/03/23 05:33:11;;;;;;;26.08;16.08;;;4.10;99.90;;;;;;4959306;28;20104;-85
2021/03/23 05:35:37;;;;;;;23.45;13.68;;;4.10;99.90;;;;;;4959405;28;20457;-85
2021/03/23 05:38:03;;;;;;;25.23;13.55;;;4.20;99.90;;;;;;4959317;28;20089;-85
2021/03/23 05:40:35;;;;;;;26.48;16.20;;;4.20;99.90;;;;;;4976576;28;20471;-85
2021/03/23 05:43:29;;;;;;;28.83;16.27;;;4.30;99.90;;;;;;4959273;28;20529;-85
2021/03/23 05:46:02;;;;;;;26.00;15.45;;;4.30;99.90;;;;;;4959018;28;20078;-85
2021/03/23 05:48:34;;;;;;;21.83;12.88;;;4.40;99.90;;;;;;4959067;28;20023;-85
2021/03/23 05:51:21;;;;;;;24.20;15.57;;;4.40;99.90;;;;;;4959041;28;20471;-85
2021/03/23 05:54:09;;;;;;;31.20;16.52;;;4.30;99.90;;;;;;4958892;28;20022;-85
2021/03/23 05:56:38;;;;;;;26.27;15.40;;;4.10;99.90;;;;;;4959361;28;20479;-85
2021/03/23 05:59:42;;;;;;;35.58;22.30;;;4.10;99.90;;;;;;4958889;28;20470;-86
2021/03/23 06:02:33;;;;;;;26.42;16.38;;;4.20;99.90;;;;;;4920522;28;20031;-86
2021/03/23 06:05:21;;;;;;;26.13;14.23;;;4.20;99.90;;;;;;4958733;28;20069;-86
2021/03/23 06:07:49;;;;;;;28.73;16.38;;;4.20;99.90;;;;;;4975961;28;20367;-86
2021/03/23 06:10:17;;;;;;;28.58;15.90;;;4.30;99.90;;;;;;4958484;28;20029;-86
2021/03/23 06:13:14;;;;;;;28.23;16.15;;;4.30;99.90;;;;;;4958538;28;20038;-86
2021/03/23 06:16:00;;;;;;;22.70;13.98;;;4.20;99.90;;;;;;4945672;28;20062;-83
2021/03/23 06:18:36;;;;;;;20.75;13.00;;;4.30;99.90;;;;;;4958354;28;20043;-83
2021/03/23 06:21:16;;;;;;;29.10;16.30;;;4.30;99.90;;;;;;4959241;28;20023;-82
2021/03/23 06:24:07;;;;;;;30.13;16.27;;;4.30;99.90;;;;;;4958614;28;20027;-83
2021/03/23 06:26:49;;;;;;;28.58;16.83;;;4.00;99.90;;;;;;4959182;28;20118;-85
2021/03/23 06:29:25;;;;;;;26.95;17.00;;;4.00;99.90;;;;;;4958237;28;20031;-85
2021/03/23 06:32:15;;;;;;;29.63;17.42;;;4.10;99.90;;;;;;4958496;28;20034;-85
2021/03/23 06:34:43;;;;;;;33.63;16.92;;;4.10;99.90;;;;;;4958127;28;20038;-85
2021/03/23 06:37:39;;;;;;;24.33;16.13;;;4.30;99.90;;;;;;4958071;28;20034;-85
2021/03/23 06:40:20;;;;;;;31.60;16.13;;;4.30;99.90;;;;;;4958593;28;20027;-85
2021/03/23 06:42:55;;;;;;;30.17;16.33;;;4.30;99.90;;;;;;4958629;28;20035;-85
2021/03/23 06:45:34;;;;;;;32.17;16.42;;;4.40;99.90;;;;;;4975240;28;20383;-85
2021/03/23 06:48:27;;;;;;;23.48;15.45;;;4.40;99.90;;;;;;4957985;28;20033;-85
2021/03/23 06:51:23;;;;;;;25.08;14.90;;;4.40;99.90;;;;;;4958220;28;20035;-85
2021/03/23 06:53:48;;;;;;;27.33;15.20;;;4.50;99.90;;;;;;4938516;28;20514;-85
2021/03/23 06:56:28;;;;;;;29.20;16.02;;;4.60;99.90;;;;;;4958689;28;20063;-85
2021/03/23 06:59:12;;;;;;;23.85;14.95;;;4.70;99.90;;;;;;4957871;28;20023;-84
2021/03/23 07:01:42;;;;;;;31.30;17.30;;;4.70;99.90;;;;;;4957813;28;20027;-85
2021/03/23 07:04:30;;;;;;;33.35;16.48;;;4.80;99.90;;;;;;4974898;28;20031;-85
2021/03/23 07:07:18;;;;;;;32.33;16.23;;;4.60;99.90;;;;;;4957656;28;20046;-85
2021/03/23 07:09:54;;;;;;;29.60;17.73;;;4.70;99.90;;;;;;4974956;28;20046;-85
2021/03/23 07:12:40;;;;;;;25.90;15.05;;;4.80;99.90;;;;;;4957674;28;20038;-85
2021/03/23 07:15:19;;;;;;;23.00;13.40;;;4.80;99.90;;;;;;4957518;28;20058;-85
2021/03/23 07:17:53;;;;;;;31.55;17.48;;;5.00;99.90;;;;;;4957399;28;20075;-85
2021/03/23 07:20:33;;;;;;;28.55;16.50;;;4.90;99.90;;;;;;4957549;28;20030;-85
2021/03/23 07:23:02;;;;;;;27.52;15.57;;;4.90;99.90;;;;;;4957446;28;20058;-85
2021/03/23 07:25:41;;;;;;;27.65;17.33;;;4.90;99.90;;;;;;4957356;28;20050;-85
2021/03/23 07:28:25;;;;;;;34.60;19.10;;;4.90;99.90;;;;;;4974851;28;20019;-85
2021/03/23 07:31:20;;;;;;;37.58;20.17;;;4.90;99.90;;;;;;4957548;28;20091;-85
2021/03/23 07:34:08;;;;;;;28.85;18.27;;;4.90;99.90;;;;;;4957575;28;20027;-85
2021/03/23 07:36:52;;;;;;;29.73;17.40;;;4.90;99.90;;;;;;4957700;28;20109;-84
2021/03/23 07:39:42;;;;;;;36.35;18.85;;;4.90;99.90;;;;;;4957340;28;20019;-85
2021/03/23 07:42:36;;;;;;;33.33;19.23;;;4.90;99.90;;;;;;4974977;28;20474;-85
2021/03/23 07:45:22;;;;;;;26.27;16.73;;;4.90;99.90;;;;;;4974847;28;20027;-85
2021/03/23 07:48:05;;;;;;;24.50;15.68;;;5.10;99.90;;;;;;4957168;28;20058;-85
2021/03/23 07:50:37;;;;;;;37.28;21.92;;;5.10;99.90;;;;;;4957330;28;20030;-85
2021/03/23 07:53:21;;;;;;;36.30;21.95;;;5.20;99.90;;;;;;4957583;28;20029;-84
2021/03/23 07:55:50;;;;;;;31.20;18.90;;;5.10;99.90;;;;;;4957542;28;20038;-85
2021/03/23 07:58:47;;;;;;;38.33;21.98;;;5.20;99.90;;;;;;4974804;28;20030;-85
2021/03/23 08:01:43;;;;;;;43.75;23.17;;;5.30;99.90;;;;;;4957432;28;20031;-85
2021/03/23 08:04:16;;;;;;;38.17;22.90;;;5.30;99.90;;;;;;4957106;28;20031;-85
2021/03/23 08:06:53;;;;;;;43.00;23.20;;;5.30;99.90;;;;;;4957984;28;20023;-85
2021/03/23 08:09:23;;;;;;;33.72;19.25;;;5.30;99.90;;;;;;4958501;28;20046;-85
2021/03/23 08:11:54;;;;;;;37.15;20.67;;;5.30;99.90;;;;;;4959457;28;20029;-85
2021/03/23 08:14:43;;;;;;;50.13;25.48;;;5.50;99.90;;;;;;4979282;28;20037;-85
2021/03/23 08:17:32;;;;;;;39.67;20.40;;;5.50;99.90;;;;;;4961615;28;20054;-85
2021/03/23 08:20:12;;;;;;;43.55;23.95;;;5.60;99.90;;;;;;4961916;28;20113;-84
2021/03/23 08:22:49;;;;;;;34.10;19.05;;;5.80;99.90;;;;;;4961906;28;20109;-85
2021/03/23 08:25:33;;;;;;;50.97;25.02;;;5.80;99.90;;;;;;4979067;28;20026;-84
2021/03/23 08:28:07;;;;;;;38.80;21.17;;;5.70;99.90;;;;;;4961888;28;20070;-85
2021/03/23 08:31:11;;;;;;;35.25;20.50;;;5.90;99.90;;;;;;4961740;28;20055;-84
2021/03/23 08:34:02;;;;;;;40.20;22.15;;;6.20;99.90;;;;;;4961363;28;20023;-84
2021/03/23 08:37:05;;;;;;;38.80;22.98;;;6.20;99.90;;;;;;4978371;28;20027;-84
2021/03/23 08:40:02;;;;;;;33.55;19.02;;;6.10;99.90;;;;;;4960671;28;20077;-84
2021/03/23 08:42:29;;;;;;;37.10;20.52;;;6.20;99.90;;;;;;4960616;28;20104;-84
2021/03/23 08:45:01;;;;;;;38.72;19.25;;;6.20;99.90;;;;;;4960534;28;20497;-85
2021/03/23 08:47:41;;;;;;;27.30;16.50;;;6.30;99.90;;;;;;4960554;28;20030;-84
2021/03/23 08:50:08;;;;;;;33.22;17.95;;;6.30;99.90;;;;;;4960602;28;20545;-84
2021/03/23 08:52:39;;;;;;;28.90;16.50;;;6.50;99.90;;;;;;4960780;28;20446;-84
2021/03/23 08:55:30;;;;;;;34.78;18.27;;;6.50;99.90;;;;;;4960507;28;20478;-84
2021/03/23 08:58:01;;;;;;;33.70;17.60;;;6.40;99.90;;;;;;4950728;28;20564;-84
2021/03/23 09:00:42;;;;;;;30.40;16.90;;;6.60;99.90;;;;;;4960229;28;20117;-85
2021/03/23 09:03:10;;;;;;;26.85;16.33;;;6.70;99.90;;;;;;4960381;28;20482;-84
2021/03/23 09:05:51;;;;;;;27.92;15.20;;;6.80;99.90;;;;;;4960183;28;20026;-84
2021/03/23 09:08:31;;;;;;;21.25;13.00;;;6.80;99.90;;;;;;4960592;28;20023;-85
2021/03/23 09:11:06;;;;;;;21.48;13.05;;;6.80;99.90;;;;;;4960249;28;20367;-85
2021/03/23 09:13:35;;;;;;;17.00;10.48;;;6.80;99.90;;;;;;4960040;28;20023;-84
2021/03/23 09:16:15;;;;;;;13.13;7.35;;;7.20;99.90;;;;;;4959920;28;20118;-84
2021/03/23 09:19:04;;;;;;;18.10;10.35;;;7.20;99.90;;;;;;4960091;28;20086;-84
2021/03/23 09:22:02;;;;;;;16.00;10.10;;;7.20;99.90;;;;;;4960038;28;20030;-84
2021/03/23 09:24:34;;;;;;;16.98;8.95;;;7.40;99.90;;;;;;4908215;28;20039;-84
2021/03/23 09:27:01;;;;;;;19.65;10.65;;;7.50;99.90;;;;;;4959885;28;20026;-84
2021/03/23 09:29:43;;;;;;;13.10;7.85;;;7.60;99.90;;;;;;4960132;28;20026;-85
2021/03/23 09:32:13;;;;;;;15.10;8.07;;;7.50;99.90;;;;;;4960004;28;20426;-84
2021/03/23 09:35:11;;;;;;;17.50;9.00;;;7.60;99.90;;;;;;4959921;28;20030;-85
2021/03/23 09:37:41;;;;;;;19.25;9.95;;;7.60;99.90;;;;;;4960400;28;20026;-84
2021/03/23 09:40:23;;;;;;;17.35;9.25;;;7.70;99.90;;;;;;4959831;28;20053;-84
2021/03/23 09:42:51;;;;;;;13.60;8.02;;;7.70;99.90;;;;;;4959589;28;20034;-84
2021/03/23 09:45:27;;;;;;;12.00;7.90;;;7.70;99.90;;;;;;4959411;28;20022;-84
2021/03/23 09:48:14;;;;;;;17.15;9.05;;;7.90;99.90;;;;;;4959631;28;20027;-85
2021/03/23 09:50:52;;;;;;;13.90;6.32;;;7.80;99.90;;;;;;4959736;28;20110;-84
2021/03/23 09:53:21;;;;;;;9.45;6.22;;;8.00;99.90;;;;;;4959528;28;20023;-84
2021/03/23 09:55:47;;;;;;;17.42;10.30;;;7.90;99.90;;;;;;4960144;28;20481;-84
2021/03/23 09:58:25;;;;;;;13.75;8.32;;;7.90;99.90;;;;;;4959295;28;20023;-84
2021/03/23 10:00:52;;;;;;;12.02;7.13;;;7.90;99.90;;;;;;4959574;28;20121;-85
2021/03/23 10:03:38;;;;;;;11.18;6.68;;;7.90;99.90;;;;;;4959642;28;20037;-84
2021/03/23 10:06:26;;;;;;;14.38;7.85;;;7.80;99.90;;;;;;4959484;28;20035;-84
2021/03/23 10:09:06;;;;;;;13.02;7.18;;;7.80;99.90;;;;;;4977511;28;20042;-85
2021/03/23 10:11:44;;;;;;;14.70;8.38;;;7.70;99.90;;;;;;4959776;28;20386;-85
2021/03/23 10:14:19;;;;;;;15.30;8.02;;;7.60;99.90;;;;;;4959418;28;20105;-85
2021/03/23 10:16:45;;;;;;;10.32;7.13;;;7.60;99.90;;;;;;4958967;28;20493;-85
2021/03/23 10:19:24;;;;;;;15.98;8.52;;;7.70;99.90;;;;;;4959283;28;20031;-85
2021/03/23 10:21:52;;;;;;;16.83;8.82;;;7.70;99.90;;;;;;4959138;28;20023;-84
2021/03/23 10:24:24;;;;;;;14.65;9.55;;;7.70;99.90;;;;;;4976844;28;20058;-84
2021/03/23 10:26:52;;;;;;;16.48;7.75;;;7.60;99.90;;;;;;4959974;28;20117;-85
2021/03/23 10:29:27;;;;;;;12.40;7.40;;;7.60;99.90;;;;;;4958899;28;20494;-84
2021/03/23 10:31:58;;;;;;;15.07;8.45;;;7.50;99.90;;;;;;4958779;28;20046;-85
2021/03/23 10:34:29;;;;;;;14.05;8.60;;;7.30;99.90;;;;;;4958405;28;20037;-85
2021/03/23 10:37:05;;;;;;;16.88;9.70;;;7.30;99.90;;;;;;4958838;28;20026;-84
2021/03/23 10:39:43;;;;;;;12.15;7.47;;;7.20;99.90;;;;;;4958794;28;20054;-84
2021/03/23 10:42:19;;;;;;;14.57;7.38;;;7.20;99.90;;;;;;4976113;28;20505;-85
2021/03/23 10:44:46;;;;;;;15.85;7.93;;;7.20;99.90;;;;;;4960362;28;20023;-87
2021/03/23 10:47:31;;;;;;;17.25;9.18;;;7.20;99.90;;;;;;4958554;28;20023;-84
2021/03/23 10:50:14;;;;;;;15.32;8.60;;;7.20;99.90;;;;;;4958598;28;20113;-85
2021/03/23 10:52:40;;;;;;;9.52;6.35;;;7.50;99.90;;;;;;4958466;28;20158;-84
2021/03/23 10:55:41;;;;;;;12.20;6.45;;;7.80;99.90;;;;;;4958403;28;20062;-84
2021/03/23 10:58:20;;;;;;;8.85;5.63;;;8.10;99.90;;;;;;4954960;28;20043;-84
2021/03/23 11:00:48;;;;;;;11.90;5.18;;;8.20;99.90;;;;;;4958454;28;20560;-84
2021/03/23 11:03:34;;;;;;;8.60;5.45;;;8.50;99.90;;;;;;4958346;28;20031;-84
2021/03/23 11:06:02;;;;;;;9.77;5.28;;;8.70;99.90;;;;;;4975324;28;20070;-85
2021/03/23 11:08:29;;;;;;;8.13;5.32;;;8.70;99.90;;;;;;4958316;28;20410;-85
2021/03/23 11:10:56;;;;;;;9.32;4.97;;;8.50;99.90;;;;;;4958065;28;20023;-85
2021/03/23 11:13:22;;;;;;;10.32;4.82;;;8.50;99.90;;;;;;4957859;28;20101;-85
2021/03/23 11:15:49;;;;;;;9.20;4.70;;;8.50;99.90;;;;;;4958151;28;20109;-84
2021/03/23 11:18:28;;;;;;;6.88;4.55;;;8.50;99.90;;;;;;4958026;28;20403;-85
2021/03/23 11:20:55;;;;;;;7.43;4.75;;;8.60;99.90;;;;;;4958046;28;20031;-84
2021/03/23 11:23:42;;;;;;;8.52;4.15;;;8.90;99.90;;;;;;4957745;28;20027;-84
2021/03/23 11:26:11;;;;;;;7.18;4.10;;;9.00;99.90;;;;;;4975614;28;20479;-84
2021/03/23 11:28:37;;;;;;;6.60;4.68;;;9.10;99.90;;;;;;4957943;28;20051;-84
2021/03/23 11:31:05;;;;;;;9.40;4.82;;;9.00;99.90;;;;;;4957953;28;20064;-84
2021/03/23 11:33:32;;;;;;;7.50;3.90;;;9.00;99.90;;;;;;4975118;28;20060;-83
2021/03/23 11:35:59;;;;;;;9.55;4.70;;;9.10;99.90;;;;;;4957768;28;20027;-84
2021/03/23 11:38:24;;;;;;;7.03;4.80;;;9.00;99.90;;;;;;4957922;28;20029;-85
2021/03/23 11:40:53;;;;;;;7.03;4.70;;;8.80;99.90;;;;;;4957782;28;20538;-85
2021/03/23 11:43:32;;;;;;;7.93;4.88;;;8.70;99.90;;;;;;4958244;28;20477;-85
2021/03/23 11:46:06;;;;;;;8.52;4.70;;;8.90;99.90;;;;;;4960034;28;20434;-85
2021/03/23 11:48:39;;;;;;;7.43;4.43;;;8.90;99.90;;;;;;4961887;28;20022;-84
2021/03/23 11:51:05;;;;;;;5.93;4.37;;;9.30;99.90;;;;;;4962035;28;20026;-85
2021/03/23 11:53:32;;;;;;;7.28;4.20;;;9.50;99.90;;;;;;4962752;28;20753;-84
2021/03/23 11:55:58;;;;;;;6.20;4.43;;;9.40;99.90;;;;;;4961753;28;20034;-85
2021/03/23 11:58:25;;;;;;;9.38;5.13;;;9.30;99.90;;;;;;4961490;28;20056;-85
2021/03/23 12:00:52;;;;;;;13.52;5.40;;;9.30;99.90;;;;;;4961379;28;20019;-85
2021/03/23 12:03:18;;;;;;;9.13;5.68;;;9.30;99.90;;;;;;4978897;28;20390;-84
2021/03/23 12:05:46;;;;;;;7.95;4.32;;;9.20;99.90;;;;;;4961325;28;20027;-85
2021/03/23 12:08:28;;;;;;;6.75;4.70;;;9.30;99.90;;;;;;4961501;28;20037;-84
2021/03/23 12:11:19;;;;;;;8.27;4.93;;;9.30;99.90;;;;;;4961174;28;20027;-85
2021/03/23 12:14:07;;;;;;;7.82;4.30;;;9.10;99.90;;;;;;4961727;28;20031;-85
2021/03/23 12:16:39;;;;;;;9.63;5.63;;;8.80;99.90;;;;;;4978327;28;20173;-84
2021/03/23 12:19:08;;;;;;;10.65;5.90;;;8.80;99.90;;;;;;4961271;28;20089;-85
2021/03/23 12:21:35;;;;;;;9.02;5.50;;;8.90;99.90;;;;;;4961075;28;20030;-84
2021/03/23 12:24:02;;;;;;;8.18;5.20;;;8.90;99.90;;;;;;4961289;28;20034;-85
2021/03/23 12:26:28;;;;;;;6.72;4.70;;;8.70;99.90;;;;;;4978605;28;20478;-85
2021/03/23 12:28:53;;;;;;;6.75;4.15;;;8.90;99.90;;;;;;4961161;28;20019;-85
2021/03/23 12:31:19;;;;;;;6.15;4.82;;;9.00;99.90;;;;;;4960957;28;20458;-84
2021/03/23 12:33:45;;;;;;;8.77;5.75;;;9.00;99.90;;;;;;4961049;28;20027;-85
2021/03/23 12:36:14;;;;;;;10.45;6.20;;;8.80;99.90;;;;;;4961015;28;20022;-85
2021/03/23 12:38:45;;;;;;;7.63;5.00;;;8.60;99.90;;;;;;4960774;28;20034;-84
2021/03/23 12:41:17;;;;;;;8.82;4.95;;;8.60;99.90;;;;;;4960725;28;20577;-84
2021/03/23 12:43:43;;;;;;;8.52;5.22;;;8.70;99.90;;;;;;4960828;28;20109;-85
2021/03/23 12:46:10;;;;;;;14.23;6.80;;;8.70;99.90;;;;;;4977930;28;20026;-84
2021/03/23 12:48:37;;;;;;;7.32;5.20;;;8.60;99.90;;;;;;4960675;28;20023;-85
2021/03/23 12:51:03;;;;;;;9.68;5.60;;;8.50;99.90;;;;;;4978015;28;20026;-85
2021/03/23 12:53:29;;;;;;;9.23;5.53;;;8.40;99.90;;;;;;4960721;28;20023;-86
2021/03/23 12:55:55;;;;;;;13.82;7.07;;;8.40;99.90;;;;;;4978252;28;20154;-86
2021/03/23 12:58:32;;;;;;;9.55;6.13;;;8.50;99.90;;;;;;4960378;28;20129;-85
2021/03/23 13:00:58;;;;;;;8.57;5.50;;;8.60;99.90;;;;;;4960616;28;20414;-83
2021/03/23 13:03:24;;;;;;;7.85;5.03;;;8.70;99.90;;;;;;4960688;28;20129;-85
2021/03/23 13:05:53;;;;;;;8.23;5.57;;;8.90;99.90;;;;;;4960476;28;20098;-85
2021/03/23 13:08:28;;;;;;;8.07;5.70;;;8.70;99.90;;;;;;4960582;28;20027;-85
2021/03/23 13:10:57;;;;;;;8.07;5.40;;;8.60;99.90;;;;;;4961123;28;20019;-85